Time;durP1;ratioP1;P1;durP2;ratioP2;P2;SDS_P1;SDS_P2;PMS_P1;PMS_P2;Temp;Humidity;BMP_temperature;BMP_pressure;BME280_temperature;BME280_humidity;BME280_pressure;Samples;Min_cycle;Max_cycle;Signal;HPM_P1;HPM_P2
2023/05/25 00:01:25;;;;;;;3.92;3.53;;;;;;;18.55;54.40;94870.66;5006754;28;20626;-73
2023/05/25 00:03:51;;;;;;;4.35;3.50;;;;;;;18.47;54.82;94868.16;5007772;28;20219;-73
2023/05/25 00:06:18;;;;;;;3.88;3.53;;;;;;;18.41;55.18;94880.44;5005259;28;20221;-72
2023/05/25 00:08:45;;;;;;;3.95;3.55;;;;;;;18.39;55.12;94876.34;5008266;28;20447;-71
2023/05/25 00:11:11;;;;;;;4.00;3.70;;;;;;;18.34;55.57;94882.31;5005477;28;20226;-71
2023/05/25 00:13:38;;;;;;;4.15;3.47;;;;;;;18.28;55.56;94872.44;5011981;28;20210;-71
2023/05/25 00:16:03;;;;;;;3.67;3.38;;;;;;;18.14;56.11;94876.13;5005848;28;20227;-71
2023/05/25 00:18:29;;;;;;;4.10;3.75;;;;;;;18.16;56.26;94882.06;5007476;28;20222;-70
2023/05/25 00:20:54;;;;;;;3.65;3.35;;;;;;;17.97;56.95;94883.66;5005292;28;20273;-70
2023/05/25 00:23:20;;;;;;;3.70;3.40;;;;;;;17.68;58.00;94877.59;5007103;28;20215;-70
2023/05/25 00:25:46;;;;;;;4.60;4.15;;;;;;;17.90;57.02;94883.63;5004389;28;20545;-70
2023/05/25 00:28:12;;;;;;;5.18;4.53;;;;;;;17.95;56.83;94883.84;5005387;28;20220;-69
2023/05/25 00:30:37;;;;;;;4.70;4.28;;;;;;;17.86;56.95;94877.09;5008241;28;20824;-69
2023/05/25 00:33:03;;;;;;;5.82;5.00;;;;;;;17.90;57.10;94872.19;5005055;28;20260;-70
2023/05/25 00:35:28;;;;;;;5.28;4.78;;;;;;;17.85;56.96;94878.09;5008913;28;20234;-69
2023/05/25 00:37:53;;;;;;;4.28;3.88;;;;;;;17.89;56.87;94876.69;5001495;28;20752;-69
2023/05/25 00:40:19;;;;;;;5.30;4.80;;;;;;;17.81;57.18;94872.38;5003035;28;20234;-69
2023/05/25 00:42:46;;;;;;;4.85;4.35;;;;;;;17.81;57.34;94885.66;5005149;28;20219;-70
2023/05/25 00:45:11;;;;;;;5.30;4.80;;;;;;;17.74;57.26;94883.97;5009094;28;20210;-73
2023/05/25 00:47:39;;;;;;;5.78;4.45;;;;;;;17.60;57.93;94891.88;5002090;28;20322;-73
2023/05/25 00:50:08;;;;;;;5.25;4.60;;;;;;;17.67;57.94;94891.94;5004207;28;20697;-73
2023/05/25 00:52:34;;;;;;;6.55;4.93;;;;;;;17.56;57.72;94890.66;5005833;28;20203;-72
2023/05/25 00:55:01;;;;;;;4.80;4.38;;;;;;;17.64;57.73;94893.16;4999860;28;20997;-73
2023/05/25 00:57:33;;;;;;;5.90;4.50;;;;;;;17.59;58.01;94887.59;5003409;28;20222;-73
2023/05/25 00:59:59;;;;;;;6.63;4.93;;;;;;;17.66;57.53;94884.13;5006598;28;20245;-73
2023/05/25 01:02:27;;;;;;;5.22;4.50;;;;;;;17.72;57.40;94883.34;5008024;28;20238;-73
2023/05/25 01:04:58;;;;;;;5.88;4.55;;;;;;;17.58;58.03;94883.28;5006093;28;20586;-74
2023/05/25 01:07:25;;;;;;;5.43;4.93;;;;;;;17.71;57.52;94897.66;5007262;28;20597;-72
2023/05/25 01:10:00;;;;;;;5.57;4.88;;;;;;;17.69;57.23;94900.50;5009678;28;20223;-73
2023/05/25 01:12:27;;;;;;;5.28;4.78;;;;;;;17.74;57.00;94903.41;5005489;28;20214;-75
2023/05/25 01:14:54;;;;;;;5.88;5.05;;;;;;;17.73;57.07;94903.59;5006578;28;20237;-74
2023/05/25 01:17:20;;;;;;;5.10;4.60;;;;;;;17.70;57.36;94904.81;5008448;28;20202;-73
2023/05/25 01:19:46;;;;;;;6.15;4.80;;;;;;;17.68;57.56;94898.06;5010266;28;20673;-74
2023/05/25 01:22:17;;;;;;;5.93;5.32;;;;;;;17.55;58.06;94899.63;5004723;28;20223;-73
2023/05/25 01:24:51;;;;;;;6.20;5.18;;;;;;;17.59;57.88;94890.25;5007165;28;20223;-75
2023/05/25 01:27:37;;;;;;;6.55;5.63;;;;;;;17.46;58.19;94887.53;5021399;28;20332;-75
2023/05/25 01:30:05;;;;;;;6.85;6.07;;;;;;;17.41;58.44;94885.47;5006652;28;20574;-75
2023/05/25 01:32:31;;;;;;;6.45;5.82;;;;;;;17.46;58.01;94892.03;5001289;28;20234;-74
2023/05/25 01:34:58;;;;;;;8.27;6.90;;;;;;;17.50;58.14;94890.63;5004750;28;20187;-75
2023/05/25 01:37:26;;;;;;;7.05;6.10;;;;;;;17.36;58.10;94887.06;5020306;28;20227;-74
2023/05/25 01:39:51;;;;;;;8.40;6.20;;;;;;;17.36;58.25;94881.75;5006683;28;20263;-74
2023/05/25 01:42:17;;;;;;;7.35;6.35;;;;;;;17.35;58.36;94877.47;5008090;28;20975;-75
2023/05/25 01:44:43;;;;;;;7.45;5.60;;;;;;;17.35;58.32;94870.31;5005578;28;20222;-74
2023/05/25 01:47:21;;;;;;;6.75;5.60;;;;;;;17.18;59.01;94874.28;5000223;28;20186;-74
2023/05/25 01:50:05;;;;;;;6.28;4.97;;;;;;;17.17;58.97;94862.84;5003948;28;20203;-75
2023/05/25 01:52:39;;;;;;;6.47;5.85;;;;;;;17.22;59.09;94864.94;5001551;28;20226;-76
2023/05/25 01:55:10;;;;;;;6.10;5.38;;;;;;;17.14;59.20;94871.22;5005724;28;20261;-77
2023/05/25 01:57:40;;;;;;;5.68;5.10;;;;;;;17.08;59.48;94864.03;5006611;28;20326;-74
2023/05/25 02:00:08;;;;;;;7.45;5.75;;;;;;;17.20;59.15;94873.09;5008647;28;20939;-75
2023/05/25 02:02:35;;;;;;;5.90;5.30;;;;;;;17.11;59.42;94874.28;5003368;28;20225;-76
2023/05/25 02:05:00;;;;;;;5.50;5.00;;;;;;;17.06;59.39;94871.38;5003267;28;20179;-75
2023/05/25 02:07:26;;;;;;;5.57;5.07;;;;;;;16.97;59.72;94872.53;5008155;28;20295;-75
2023/05/25 02:09:51;;;;;;;5.97;5.38;;;;;;;17.05;59.12;94876.88;5009664;28;20214;-74
2023/05/25 02:12:17;;;;;;;6.90;5.68;;;;;;;16.93;59.20;94872.09;5008097;28;20223;-75
2023/05/25 02:14:44;;;;;;;5.00;4.50;;;;;;;17.01;58.89;94880.94;5009068;28;20246;-74
2023/05/25 02:17:11;;;;;;;5.30;4.82;;;;;;;16.89;59.05;94875.34;5000843;28;20394;-74
2023/05/25 02:19:37;;;;;;;6.30;5.40;;;;;;;16.87;59.50;94877.41;5005673;28;20183;-74
2023/05/25 02:22:02;;;;;;;6.32;4.90;;;;;;;16.71;59.75;94892.56;5006312;28;20218;-74
2023/05/25 02:24:28;;;;;;;5.03;4.47;;;;;;;16.56;60.34;94896.31;5003095;28;20225;-75
2023/05/25 02:26:53;;;;;;;6.10;5.50;;;;;;;16.58;60.21;94895.13;5006507;28;20937;-75
2023/05/25 02:29:19;;;;;;;5.22;4.60;;;;;;;16.75;59.95;94906.25;5008521;28;20241;-75
2023/05/25 02:31:44;;;;;;;5.45;4.80;;;;;;;16.69;60.06;94896.41;5005625;28;20300;-75
2023/05/25 02:34:10;;;;;;;6.93;5.18;;;;;;;16.70;60.07;94904.19;5007139;28;20229;-74
2023/05/25 02:36:36;;;;;;;5.70;5.00;;;;;;;16.67;60.25;94901.09;5009254;28;20227;-75
2023/05/25 02:39:02;;;;;;;5.72;5.13;;;;;;;16.64;60.83;94912.09;5003052;28;20231;-75
2023/05/25 02:41:27;;;;;;;6.10;5.30;;;;;;;16.74;60.38;94913.41;5006307;28;20227;-74
2023/05/25 02:43:53;;;;;;;5.93;5.32;;;;;;;16.79;60.21;94925.34;5008241;28;20613;-73
2023/05/25 02:46:19;;;;;;;7.05;5.28;;;;;;;16.79;60.45;94922.69;5021803;28;20259;-75
2023/05/25 02:48:45;;;;;;;6.13;5.40;;;;;;;16.66;60.61;94920.69;5005617;28;20728;-74
2023/05/25 02:51:11;;;;;;;7.50;5.40;;;;;;;16.40;61.35;94926.59;5036714;28;20210;-74
2023/05/25 02:53:36;;;;;;;5.03;4.50;;;;;;;16.46;61.18;94929.28;5004079;28;20271;-74
2023/05/25 02:56:04;;;;;;;5.53;4.80;;;;;;;16.40;61.37;94924.75;5006664;28;20199;-73
2023/05/25 02:58:30;;;;;;;5.40;4.90;;;;;;;16.40;61.21;94931.91;5003018;28;20182;-74
2023/05/25 03:00:58;;;;;;;5.45;4.88;;;;;;;16.36;61.25;94938.56;5007813;28;20229;-75
2023/05/25 03:03:24;;;;;;;5.75;5.15;;;;;;;16.41;61.04;94938.84;5006798;28;20223;-73
2023/05/25 03:05:50;;;;;;;6.53;4.38;;;;;;;16.52;60.82;94933.84;5005232;28;20227;-74
2023/05/25 03:08:15;;;;;;;5.13;4.20;;;;;;;16.40;61.18;94934.56;4991278;28;20192;-73
2023/05/25 03:10:41;;;;;;;6.25;4.80;;;;;;;16.40;61.32;94932.72;5003619;28;20271;-75
2023/05/25 03:13:06;;;;;;;5.05;4.63;;;;;;;16.45;61.20;94932.97;5004125;28;20219;-74
2023/05/25 03:15:32;;;;;;;5.20;4.68;;;;;;;16.49;60.99;94931.59;4999432;28;20219;-73
2023/05/25 03:18:00;;;;;;;5.05;4.53;;;;;;;16.53;61.10;94935.50;5007503;28;20223;-73
2023/05/25 03:20:26;;;;;;;6.90;4.32;;;;;;;16.53;61.20;94937.34;5004855;28;20309;-74
2023/05/25 03:22:51;;;;;;;4.80;4.25;;;;;;;16.48;61.26;94929.13;5008928;28;20182;-74
2023/05/25 03:25:17;;;;;;;7.80;5.43;;;;;;;16.54;61.11;94928.34;5001824;28;20227;-74
2023/05/25 03:27:42;;;;;;;5.63;4.97;;;;;;;16.56;61.18;94939.59;5008132;28;20214;-74
2023/05/25 03:30:08;;;;;;;5.63;4.93;;;;;;;16.56;61.17;94938.78;5003394;28;20228;-74
2023/05/25 03:32:35;;;;;;;6.40;5.68;;;;;;;16.61;61.20;94934.53;5006929;28;20280;-74
2023/05/25 03:35:00;;;;;;;6.57;4.80;;;;;;;16.57;61.42;94943.06;5001598;28;20213;-73
2023/05/25 03:37:26;;;;;;;6.18;5.13;;;;;;;16.57;61.39;94948.38;5003793;28;20223;-70
2023/05/25 03:39:51;;;;;;;6.50;5.53;;;;;;;16.60;61.15;94943.53;5002459;28;20216;-71
2023/05/25 03:42:16;;;;;;;6.40;4.97;;;;;;;16.64;60.50;94942.13;5001554;28;20594;-73
2023/05/25 03:44:42;;;;;;;5.35;4.80;;;;;;;16.64;60.58;94943.97;5003498;28;20305;-73
2023/05/25 03:47:07;;;;;;;5.88;4.82;;;;;;;16.66;60.59;94942.75;5003717;28;20177;-72
2023/05/25 03:49:33;;;;;;;7.90;5.30;;;;;;;16.66;60.10;94940.09;5007864;28;20182;-71
2023/05/25 03:52:00;;;;;;;7.20;4.82;;;;;;;16.56;60.52;94939.59;5002932;28;20268;-72
2023/05/25 03:54:25;;;;;;;7.05;5.30;;;;;;;16.58;60.43;94937.59;5008380;28;20253;-72
2023/05/25 03:56:51;;;;;;;6.63;5.20;;;;;;;16.51;60.76;94948.13;5001223;28;20235;-72
2023/05/25 03:59:17;;;;;;;7.70;5.85;;;;;;;16.61;60.67;94950.47;5006816;28;20739;-73
2023/05/25 04:01:43;;;;;;;6.60;5.47;;;;;;;16.64;60.41;94950.09;4999407;28;20196;-72
2023/05/25 04:04:08;;;;;;;6.00;5.15;;;;;;;16.70;60.46;94954.63;5005236;28;20223;-72
2023/05/25 04:06:36;;;;;;;5.50;5.00;;;;;;;16.79;60.22;94957.19;5003778;28;20223;-71
2023/05/25 04:09:03;;;;;;;7.32;5.50;;;;;;;16.82;59.75;94962.13;5003985;28;20231;-72
2023/05/25 04:11:28;;;;;;;6.40;5.75;;;;;;;16.85;59.46;94969.72;5003096;28;20711;-72
2023/05/25 04:13:54;;;;;;;7.53;5.47;;;;;;;16.88;59.69;94969.31;5004678;28;20248;-72
2023/05/25 04:16:20;;;;;;;7.85;5.60;;;;;;;16.97;59.49;94969.00;4998608;28;20232;-72
2023/05/25 04:18:46;;;;;;;7.32;5.25;;;;;;;16.95;60.23;94975.50;5004592;28;20219;-72
2023/05/25 04:21:11;;;;;;;7.70;5.28;;;;;;;16.98;60.10;94977.78;5007956;28;20245;-72
2023/05/25 04:23:36;;;;;;;5.47;4.97;;;;;;;17.04;60.14;94973.53;5005380;28;20219;-74
2023/05/25 04:26:02;;;;;;;6.95;5.43;;;;;;;17.31;59.49;94963.91;5009480;28;20509;-74
2023/05/25 04:28:28;;;;;;;6.55;5.68;;;;;;;16.80;60.62;94978.25;5006023;28;20184;-74
2023/05/25 04:30:57;;;;;;;6.70;5.35;;;;;;;16.84;61.13;94978.66;5011646;28;20234;-74
2023/05/25 04:33:23;;;;;;;9.48;6.35;;;;;;;16.74;61.70;94989.59;5005371;28;20309;-73
2023/05/25 04:35:49;;;;;;;7.60;6.78;;;;;;;16.96;60.61;94987.78;5010039;28;20305;-72
2023/05/25 04:38:19;;;;;;;7.70;6.90;;;;;;;17.18;59.42;94997.34;5006485;28;20580;-73
2023/05/25 04:40:47;;;;;;;9.98;7.35;;;;;;;17.20;59.21;94992.66;5002438;28;20245;-74
2023/05/25 04:43:17;;;;;;;9.50;8.13;;;;;;;17.42;58.29;95000.56;4999829;28;20238;-75
2023/05/25 04:45:44;;;;;;;8.52;7.72;;;;;;;17.12;59.23;94999.97;4988440;28;20318;-74
2023/05/25 04:48:10;;;;;;;8.38;7.38;;;;;;;17.31;58.96;94993.97;5000558;28;20224;-73
2023/05/25 04:50:38;;;;;;;8.35;7.47;;;;;;;17.54;57.87;94983.06;5007479;28;20237;-74
2023/05/25 04:53:05;;;;;;;8.40;7.22;;;;;;;17.58;58.23;94986.16;5006539;28;20199;-73
2023/05/25 04:55:30;;;;;;;9.88;7.68;;;;;;;17.37;59.03;94985.22;5008570;28;20234;-73
2023/05/25 04:57:55;;;;;;;8.23;7.40;;;;;;;17.54;58.51;94979.59;5003082;28;20239;-70
2023/05/25 05:00:21;;;;;;;9.18;7.75;;;;;;;17.69;57.99;94966.16;4996300;28;20219;-70
2023/05/25 05:02:47;;;;;;;8.43;7.38;;;;;;;17.73;57.92;94970.09;4993409;28;20223;-70
2023/05/25 05:05:12;;;;;;;11.98;7.60;;;;;;;17.72;57.54;94963.97;5011974;28;20589;-70
2023/05/25 05:07:38;;;;;;;8.32;7.53;;;;;;;17.87;57.38;94973.66;5005344;28;20202;-73
2023/05/25 05:10:04;;;;;;;8.50;7.70;;;;;;;17.81;57.48;94964.63;5004644;28;20237;-73
2023/05/25 05:12:29;;;;;;;7.93;6.78;;;;;;;17.78;57.31;94971.13;5003957;28;20222;-68
2023/05/25 05:14:55;;;;;;;7.75;6.97;;;;;;;17.67;58.45;94963.72;5005559;28;20218;-67
2023/05/25 05:17:21;;;;;;;7.43;6.68;;;;;;;17.67;58.49;94973.50;5001322;28;20231;-66
2023/05/25 05:19:47;;;;;;;8.48;7.45;;;;;;;17.71;57.89;94972.13;5004677;28;20267;-66
2023/05/25 05:22:14;;;;;;;7.35;6.65;;;;;;;17.83;57.44;94973.25;5004386;28;20847;-66
2023/05/25 05:24:40;;;;;;;7.65;6.43;;;;;;;17.88;57.59;94969.97;4998517;28;20222;-70
2023/05/25 05:27:06;;;;;;;7.15;6.45;;;;;;;17.87;57.76;94978.97;5008522;28;20268;-70
2023/05/25 05:29:33;;;;;;;7.57;6.78;;;;;;;17.90;57.56;94987.38;5008446;28;20228;-69
2023/05/25 05:31:59;;;;;;;8.38;6.60;;;;;;;18.04;57.60;94991.75;5001051;28;20198;-69
2023/05/25 05:34:25;;;;;;;7.95;7.15;;;;;;;18.02;57.76;94982.31;5001813;28;20227;-63
2023/05/25 05:36:51;;;;;;;8.13;7.32;;;;;;;17.99;58.05;94983.53;4994471;28;20258;-67
2023/05/25 05:39:16;;;;;;;9.05;7.05;;;;;;;18.18;57.31;94986.50;4992519;28;20219;-69
2023/05/25 05:41:44;;;;;;;7.60;6.85;;;;;;;18.27;57.43;94994.06;5003742;28;20596;-70
2023/05/25 05:44:10;;;;;;;7.68;6.63;;;;;;;18.30;57.91;94992.84;4988739;28;20218;-71
2023/05/25 05:46:36;;;;;;;8.30;7.10;;;;;;;18.32;57.80;94990.81;5011370;28;20673;-70
2023/05/25 05:49:02;;;;;;;7.90;7.07;;;;;;;18.40;56.98;95001.28;5008564;28;20223;-70
2023/05/25 05:51:28;;;;;;;8.90;7.60;;;;;;;18.17;58.18;94998.13;5004365;28;20222;-70
2023/05/25 05:53:53;;;;;;;8.88;7.95;;;;;;;18.24;57.61;94996.31;5008616;28;20686;-70
2023/05/25 05:56:19;;;;;;;8.57;7.60;;;;;;;18.49;57.58;95001.91;5001512;28;20654;-70
2023/05/25 05:58:47;;;;;;;8.55;7.68;;;;;;;18.52;57.27;94999.69;5001724;28;20248;-72
2023/05/25 06:01:13;;;;;;;8.23;7.53;;;;;;;18.80;55.94;95005.91;5006727;28;20242;-71
2023/05/25 06:03:38;;;;;;;9.43;8.40;;;;;;;18.56;56.64;94999.28;5008464;28;20286;-71
2023/05/25 06:06:04;;;;;;;8.27;7.40;;;;;;;18.68;56.00;95002.97;5004973;28;20234;-72
2023/05/25 06:08:30;;;;;;;9.57;8.68;;;;;;;18.79;55.63;94999.78;5007587;28;20276;-70
2023/05/25 06:10:55;;;;;;;12.82;8.63;;;;;;;18.92;55.25;94997.13;5008834;28;20194;-70
2023/05/25 06:13:21;;;;;;;9.38;7.80;;;;;;;18.99;55.00;94999.78;5002818;28;20223;-71
2023/05/25 06:15:46;;;;;;;9.48;8.48;;;;;;;19.10;54.95;95003.69;4989303;28;20262;-71
2023/05/25 06:18:12;;;;;;;9.00;8.10;;;;;;;19.16;54.29;94995.69;5004529;28;20215;-70
2023/05/25 06:20:37;;;;;;;7.80;7.03;;;;;;;19.17;53.87;95002.66;5000473;28;20310;-71
2023/05/25 06:23:03;;;;;;;7.32;6.63;;;;;;;19.20;53.10;95001.44;4998354;28;20222;-69
2023/05/25 06:25:28;;;;;;;7.50;6.75;;;;;;;19.30;52.71;95001.84;5002625;28;20639;-69
2023/05/25 06:27:53;;;;;;;7.22;6.53;;;;;;;19.27;52.94;94996.94;4999893;28;20219;-66
2023/05/25 06:30:19;;;;;;;7.57;6.88;;;;;;;19.38;52.89;94998.16;4997167;28;20246;-68
2023/05/25 06:32:45;;;;;;;8.15;7.32;;;;;;;19.22;52.96;95004.72;5004551;28;20262;-65
2023/05/25 06:35:18;;;;;;;8.02;7.20;;;;;;;19.28;52.91;95003.06;4999606;28;20543;-68
2023/05/25 06:37:44;;;;;;;7.35;6.65;;;;;;;19.43;53.00;95006.31;5005508;28;20214;-71
2023/05/25 06:40:10;;;;;;;7.15;6.40;;;;;;;19.54;52.69;94997.72;4998190;28;20219;-69
2023/05/25 06:42:36;;;;;;;7.63;6.45;;;;;;;19.67;52.33;94996.88;5008078;28;20274;-64
2023/05/25 06:45:03;;;;;;;7.63;6.07;;;;;;;19.75;52.53;95002.00;5000129;28;20349;-67
2023/05/25 06:47:28;;;;;;;7.28;6.57;;;;;;;19.89;52.29;95010.78;5005918;28;20223;-65
2023/05/25 06:49:54;;;;;;;7.35;6.65;;;;;;;20.04;51.61;95010.53;5004023;28;20348;-68
2023/05/25 06:52:19;;;;;;;6.57;5.85;;;;;;;19.76;52.76;95003.63;5000648;28;20219;-71
2023/05/25 06:54:44;;;;;;;6.35;5.75;;;;;;;19.93;52.87;95012.00;4996685;28;20212;-66
2023/05/25 06:57:10;;;;;;;6.43;5.78;;;;;;;20.11;52.43;95011.34;4998211;28;20235;-67
2023/05/25 06:59:35;;;;;;;6.47;5.70;;;;;;;20.14;52.01;95008.25;4997960;28;20314;-69
2023/05/25 07:02:01;;;;;;;5.93;5.40;;;;;;;20.26;51.93;94995.88;4987866;28;20365;-69
2023/05/25 07:04:27;;;;;;;5.55;5.05;;;;;;;20.30;52.34;95006.94;5003567;28;20270;-70
2023/05/25 07:06:52;;;;;;;6.85;6.15;;;;;;;20.33;51.38;94997.69;5000376;28;20219;-70
2023/05/25 07:09:18;;;;;;;7.80;5.78;;;;;;;20.59;50.81;95007.47;5000226;28;20249;-68
2023/05/25 07:11:43;;;;;;;5.57;5.00;;;;;;;20.65;50.52;95002.06;4998776;28;20216;-68
2023/05/25 07:14:09;;;;;;;5.10;4.70;;;;;;;20.69;51.32;94997.94;5003148;28;20196;-67
2023/05/25 07:16:34;;;;;;;5.82;5.30;;;;;;;20.89;51.13;94994.31;5001513;28;20576;-67
2023/05/25 07:19:00;;;;;;;4.32;3.92;;;;;;;21.07;51.11;94993.56;5002203;28;20220;-68
2023/05/25 07:21:26;;;;;;;4.47;4.07;;;;;;;21.09;50.98;94994.16;4999261;28;20521;-70
2023/05/25 07:23:51;;;;;;;5.20;4.43;;;;;;;21.21;50.15;94995.09;5008230;28;20273;-71
2023/05/25 07:26:19;;;;;;;5.13;4.63;;;;;;;21.32;49.79;94988.22;5001013;28;20218;-72
2023/05/25 07:28:44;;;;;;;4.53;4.13;;;;;;;21.63;49.58;95000.72;5001060;28;20270;-72
2023/05/25 07:31:10;;;;;;;8.95;7.80;;;;;;;21.83;49.45;94994.34;5008065;28;20223;-72
2023/05/25 07:33:36;;;;;;;5.80;5.20;;;;;;;21.91;49.24;94996.72;5004873;28;20321;-73
2023/05/25 07:36:01;;;;;;;4.70;4.30;;;;;;;21.99;48.72;94997.25;4999359;28;20242;-71
2023/05/25 07:38:27;;;;;;;5.80;5.15;;;;;;;21.99;48.48;94994.56;5001606;28;20223;-70
2023/05/25 07:40:52;;;;;;;15.15;6.70;;;;;;;22.12;47.70;95000.81;4999063;28;20179;-71
2023/05/25 07:43:18;;;;;;;5.10;4.43;;;;;;;21.89;48.47;95009.50;5007576;28;20218;-71
2023/05/25 07:45:43;;;;;;;7.18;4.97;;;;;;;21.96;47.74;94997.69;5004705;28;20230;-71
2023/05/25 07:48:09;;;;;;;6.38;4.68;;;;;;;22.06;47.56;94994.50;5001824;28;20220;-71
2023/05/25 07:50:34;;;;;;;4.90;4.28;;;;;;;21.63;48.69;94999.91;5006337;28;20226;-71
2023/05/25 07:53:00;;;;;;;4.43;4.03;;;;;;;21.58;48.74;95003.25;4998044;28;20186;-72
2023/05/25 07:55:25;;;;;;;4.15;3.75;;;;;;;21.44;49.53;95007.06;5002922;28;20321;-69
2023/05/25 07:57:52;;;;;;;4.00;3.60;;;;;;;21.28;50.61;95008.44;5000169;28;20310;-72
2023/05/25 08:00:18;;;;;;;4.50;3.83;;;;;;;21.27;51.06;95017.47;5009167;28;20325;-69
2023/05/25 08:02:43;;;;;;;4.25;3.83;;;;;;;21.29;51.12;95018.91;5002698;28;20840;-69
2023/05/25 08:05:09;;;;;;;4.03;3.63;;;;;;;21.21;51.13;95019.16;5009413;28;20655;-67
2023/05/25 08:07:35;;;;;;;4.05;3.50;;;;;;;21.06;51.30;95027.53;5004958;28;20246;-70
2023/05/25 08:10:02;;;;;;;3.05;2.80;;;;;;;21.03;50.94;95025.25;5002944;28;20219;-68
2023/05/25 08:12:28;;;;;;;4.13;3.72;;;;;;;20.95;51.04;95044.22;4993123;28;20230;-68
2023/05/25 08:14:54;;;;;;;5.75;5.00;;;;;;;20.86;52.00;95049.00;4989293;28;20231;-65
2023/05/25 08:17:20;;;;;;;5.60;5.10;;;;;;;20.80;52.04;95054.41;5002301;28;20218;-72
2023/05/25 08:19:45;;;;;;;6.82;4.97;;;;;;;20.69;52.65;95054.06;5003768;28;20256;-68
2023/05/25 08:22:11;;;;;;;6.10;5.50;;;;;;;20.65;52.30;95058.16;5006695;28;20223;-70
2023/05/25 08:24:36;;;;;;;5.13;4.72;;;;;;;20.52;52.20;95058.19;5010721;28;20229;-69
2023/05/25 08:27:02;;;;;;;5.95;5.35;;;;;;;20.51;52.50;95071.78;5009486;28;20224;-66
2023/05/25 08:29:27;;;;;;;5.63;5.05;;;;;;;20.40;53.23;95070.59;5010814;28;20230;-68
2023/05/25 08:31:53;;;;;;;5.82;5.22;;;;;;;20.34;53.67;95074.94;5008068;28;20238;-69
2023/05/25 08:34:18;;;;;;;6.72;5.28;;;;;;;20.25;53.63;95076.19;5001115;28;20249;-68
2023/05/25 08:36:44;;;;;;;5.50;5.00;;;;;;;20.25;54.18;95079.66;5004391;28;20250;-67
2023/05/25 08:39:10;;;;;;;6.63;5.07;;;;;;;20.12;54.40;95071.69;5006658;28;20214;-75
2023/05/25 08:41:40;;;;;;;5.30;4.80;;;;;;;19.92;55.43;95073.59;5002793;28;20234;-75
2023/05/25 08:44:07;;;;;;;5.93;5.00;;;;;;;19.93;55.73;95084.06;5008003;28;20194;-75
2023/05/25 08:46:33;;;;;;;5.38;4.80;;;;;;;19.78;56.57;95086.97;5008210;28;20207;-76
2023/05/25 08:49:12;;;;;;;4.40;4.00;;;;;;;19.70;56.89;95078.34;5007290;28;20215;-72
2023/05/25 08:51:42;;;;;;;4.20;3.80;;;;;;;19.78;55.98;95092.31;5009148;28;20226;-75
2023/05/25 08:54:12;;;;;;;3.63;3.33;;;;;;;19.63;55.55;95085.50;5010085;28;20298;-74
2023/05/25 08:57:09;;;;;;;4.05;3.65;;;;;;;19.63;55.67;95096.19;5008853;28;20232;-77
2023/05/25 08:59:56;;;;;;;5.10;3.50;;;;;;;19.67;56.21;95095.56;5008823;28;20310;-73
2023/05/25 09:03:00;;;;;;;3.58;3.08;;;;;;;19.47;57.23;95103.56;5016312;28;20223;-74
2023/05/25 09:05:26;;;;;;;5.22;3.40;;;;;;;19.20;60.08;95107.22;5013140;28;20281;-73
2023/05/25 09:07:53;;;;;;;5.32;4.50;;;;;;;19.24;59.84;95113.78;5004522;28;20180;-72
2023/05/25 09:10:19;;;;;;;4.10;3.70;;;;;;;19.26;60.49;95115.22;5005027;28;20218;-71
2023/05/25 09:12:46;;;;;;;4.35;3.65;;;;;;;19.23;61.55;95118.31;5004365;28;20219;-71
2023/05/25 09:15:12;;;;;;;4.57;3.97;;;;;;;19.02;62.32;95118.47;5004594;28;20227;-73
2023/05/25 09:17:39;;;;;;;4.22;3.83;;;;;;;19.01;63.65;95119.50;5000664;28;20219;-71
2023/05/25 09:20:07;;;;;;;4.95;4.13;;;;;;;19.04;63.97;95117.25;5000780;28;20600;-77
2023/05/25 09:22:34;;;;;;;3.80;3.22;;;;;;;19.09;63.98;95117.47;5011555;28;20175;-77
2023/05/25 09:25:05;;;;;;;3.80;3.50;;;;;;;19.16;63.27;95118.31;5008533;28;20298;-76
2023/05/25 09:27:38;;;;;;;3.63;3.33;;;;;;;19.12;61.26;95113.56;4998782;28;20309;-74
2023/05/25 09:30:04;;;;;;;4.07;3.67;;;;;;;18.94;61.49;95103.47;5002193;28;20210;-77
2023/05/25 09:32:30;;;;;;;4.90;3.75;;;;;;;19.05;62.11;95104.75;5001026;28;20234;-77
2023/05/25 09:35:06;;;;;;;5.05;3.67;;;;;;;18.79;63.46;95106.31;5006815;28;20187;-74
2023/05/25 09:37:31;;;;;;;4.03;3.60;;;;;;;18.79;62.02;95101.00;5009947;28;20301;-74
2023/05/25 09:39:57;;;;;;;3.63;3.33;;;;;;;18.97;61.53;95100.41;5001839;28;20219;-73
2023/05/25 09:42:22;;;;;;;4.28;3.88;;;;;;;18.88;63.35;95089.13;5006205;28;20317;-72
2023/05/25 09:44:48;;;;;;;4.13;3.33;;;;;;;18.98;63.45;95091.41;5003088;28;20233;-73
2023/05/25 09:47:15;;;;;;;4.82;3.97;;;;;;;18.79;63.81;95085.00;5006352;28;20183;-73
2023/05/25 09:49:43;;;;;;;4.57;3.72;;;;;;;18.79;63.58;95086.84;5004203;28;20299;-72
2023/05/25 09:52:10;;;;;;;4.53;3.45;;;;;;;19.14;62.77;95092.88;5000484;28;20274;-73
2023/05/25 09:54:37;;;;;;;4.90;3.70;;;;;;;19.28;63.20;95078.53;5005750;28;20223;-73
2023/05/25 09:57:04;;;;;;;4.10;3.40;;;;;;;19.55;62.71;95081.19;5007940;28;20231;-72
2023/05/25 09:59:30;;;;;;;4.00;3.67;;;;;;;19.66;62.06;95075.28;5002809;28;20598;-74
2023/05/25 10:01:55;;;;;;;3.83;3.35;;;;;;;19.93;61.04;95072.56;5006194;28;20270;-73
2023/05/25 10:04:21;;;;;;;4.13;3.72;;;;;;;20.10;61.07;95078.28;5010254;28;20234;-73
2023/05/25 10:06:50;;;;;;;3.92;3.53;;;;;;;19.67;61.46;95076.91;4999311;28;20261;-70
2023/05/25 10:09:18;;;;;;;3.67;3.38;;;;;;;20.01;61.45;95072.34;5001968;28;20234;-68
2023/05/25 10:11:44;;;;;;;4.28;3.58;;;;;;;20.30;61.69;95070.22;5007394;28;20309;-68
2023/05/25 10:14:14;;;;;;;3.55;3.25;;;;;;;20.51;61.44;95072.59;4995151;28;20179;-69
2023/05/25 10:16:43;;;;;;;3.35;3.05;;;;;;;20.35;60.71;95057.06;5010008;28;20224;-69
2023/05/25 10:19:17;;;;;;;3.42;3.08;;;;;;;20.50;60.72;95060.25;4998650;28;20238;-70
2023/05/25 10:21:55;;;;;;;2.88;2.67;;;;;;;20.85;56.10;95062.59;5004296;28;20220;-70
2023/05/25 10:24:30;;;;;;;3.05;2.80;;;;;;;20.33;58.46;95059.09;4997905;28;20931;-70
2023/05/25 10:27:00;;;;;;;2.78;2.58;;;;;;;20.69;58.90;95055.91;5006069;28;20289;-68
2023/05/25 10:29:27;;;;;;;2.88;2.67;;;;;;;20.71;58.57;95059.16;5009448;28;20230;-67
2023/05/25 10:31:53;;;;;;;3.97;3.58;;;;;;;20.99;56.29;95044.63;5007926;28;20191;-67
2023/05/25 10:34:20;;;;;;;2.75;2.53;;;;;;;21.04;54.21;95044.81;5003843;28;20237;-68
2023/05/25 10:36:47;;;;;;;3.42;3.13;;;;;;;21.20;54.17;95035.41;4992504;28;20758;-70
2023/05/25 10:39:14;;;;;;;4.38;3.80;;;;;;;21.19;56.72;95033.78;4993139;28;20231;-66
2023/05/25 10:41:41;;;;;;;4.90;4.13;;;;;;;21.23;55.94;95025.13;4996760;28;20231;-66
2023/05/25 10:44:07;;;;;;;5.38;4.03;;;;;;;21.24;55.58;95023.25;4979801;28;20196;-65
2023/05/25 10:46:34;;;;;;;3.78;3.47;;;;;;;21.15;56.92;95028.88;4989019;28;20183;-68
2023/05/25 10:49:01;;;;;;;4.05;3.63;;;;;;;21.14;55.33;95016.56;4985621;28;20226;-68
2023/05/25 10:51:42;;;;;;;3.55;3.25;;;;;;;21.26;55.48;95016.66;4998985;28;20226;-68
2023/05/25 10:54:12;;;;;;;3.83;3.45;;;;;;;21.35;53.52;95011.84;5005974;28;20250;-70
2023/05/25 10:56:58;;;;;;;3.35;3.05;;;;;;;21.36;54.96;95011.63;4994799;28;20288;-69
2023/05/25 10:59:29;;;;;;;3.88;3.40;;;;;;;21.35;54.25;95004.63;4998106;28;20236;-69
2023/05/25 11:01:54;;;;;;;5.40;3.83;;;;;;;21.18;55.37;95008.09;5007004;28;20611;-72
2023/05/25 11:04:20;;;;;;;3.60;3.30;;;;;;;21.26;54.79;94995.25;5005049;28;20215;-69
2023/05/25 11:06:45;;;;;;;4.38;3.80;;;;;;;21.15;54.38;94996.78;4988159;28;20214;-68
2023/05/25 11:09:24;;;;;;;3.75;3.30;;;;;;;21.09;55.61;95004.84;5006294;28;20230;-70
2023/05/25 11:11:51;;;;;;;3.35;3.05;;;;;;;21.18;54.04;95003.56;5006531;28;20321;-70
2023/05/25 11:14:30;;;;;;;4.32;3.45;;;;;;;21.14;53.85;94997.84;5004063;28;20218;-72
2023/05/25 11:17:16;;;;;;;5.03;3.30;;;;;;;20.93;54.31;95008.91;5004796;28;20711;-76
2023/05/25 11:19:50;;;;;;;3.40;3.10;;;;;;;21.14;54.05;95011.22;5002469;28;20697;-72
2023/05/25 11:22:16;;;;;;;3.53;3.22;;;;;;;20.89;53.09;95005.81;5008315;28;20440;-77
2023/05/25 11:24:45;;;;;;;3.30;3.00;;;;;;;20.81;53.31;94999.91;5006314;28;20349;-73
2023/05/25 11:27:11;;;;;;;3.20;2.90;;;;;;;20.92;51.02;95005.38;5004875;28;20254;-76
2023/05/25 11:29:38;;;;;;;3.15;2.85;;;;;;;20.68;52.60;95004.31;4987976;28;20336;-70
2023/05/25 11:32:04;;;;;;;4.15;3.08;;;;;;;20.64;52.89;95002.28;5002205;28;20250;-70
2023/05/25 11:34:33;;;;;;;3.30;3.00;;;;;;;20.91;51.91;95000.28;5009892;28;20274;-72